Time;durP1;ratioP1;P1;durP2;ratioP2;P2;SDS_P1;SDS_P2;PMS_P1;PMS_P2;Temp;Humidity;BMP_temperature;BMP_pressure;BME280_temperature;BME280_humidity;BME280_pressure;Samples;Min_cycle;Max_cycle;Signal;HPM_P1;HPM_P2
2023/01/28 05:22:33;;;;;;;2.25;2.00;;;;;;;1.75;100.00;101029.69;5109557;27;20331;-62
2023/01/28 05:25:14;;;;;;;1.17;1.02;;;;;;;1.79;100.00;101039.91;5108318;28;20036;-62
2023/01/28 05:27:40;;;;;;;2.35;1.73;;;;;;;1.80;100.00;101038.97;5107946;28;20032;-60
2023/01/28 05:30:06;;;;;;;3.63;2.25;;;;;;;1.78;100.00;101040.00;5108441;28;20114;-63
2023/01/28 05:32:31;;;;;;;2.80;2.17;;;;;;;1.78;100.00;101043.47;5108177;28;20065;-62
2023/01/28 05:34:57;;;;;;;2.20;2.00;;;;;;;1.84;100.00;101048.34;5120531;22;20050;-69
2023/01/28 05:37:24;;;;;;;2.03;1.70;;;;;;;1.80;100.00;101040.75;5084320;28;20045;-69
2023/01/28 05:39:54;;;;;;;3.13;2.20;;;;;;;1.74;100.00;101041.13;5069448;28;20120;-69
2023/01/28 05:42:21;;;;;;;1.92;1.80;;;;;;;1.78;100.00;101045.25;5083982;28;20119;-67
2023/01/28 05:44:49;;;;;;;2.85;2.35;;;;;;;1.78;100.00;101045.25;5084988;28;20041;-68
2023/01/28 05:47:21;;;;;;;2.38;2.05;;;;;;;1.76;100.00;101050.63;5103641;28;20032;-68
2023/01/28 05:49:55;;;;;;;2.75;2.17;;;;;;;1.80;100.00;101049.47;5104245;28;20131;-67
2023/01/28 05:52:35;;;;;;;2.35;1.88;;;;;;;1.75;100.00;101046.28;5088682;28;20543;-68
2023/01/28 05:55:01;;;;;;;2.38;1.88;;;;;;;1.79;100.00;101063.53;5104033;28;20572;-68
2023/01/28 05:57:27;;;;;;;2.15;1.75;;;;;;;1.83;100.00;101064.22;5086790;28;20116;-68
2023/01/28 05:59:52;;;;;;;3.13;2.15;;;;;;;1.85;100.00;101063.16;5103729;28;20034;-66
2023/01/28 06:02:18;;;;;;;2.20;2.00;;;;;;;1.86;100.00;101062.22;5087016;28;20083;-67
2023/01/28 06:04:43;;;;;;;2.70;2.35;;;;;;;1.89;100.00;101069.03;5103871;28;20039;-68
2023/01/28 06:07:12;;;;;;;3.72;2.53;;;;;;;1.90;100.00;101074.22;5103622;28;20560;-65
2023/01/28 06:09:38;;;;;;;2.03;1.73;;;;;;;1.91;100.00;101072.44;5086870;28;20067;-66
2023/01/28 06:12:04;;;;;;;3.22;2.45;;;;;;;1.92;100.00;101076.75;5103625;28;20139;-66
2023/01/28 06:14:37;;;;;;;2.95;2.30;;;;;;;1.88;100.00;101089.22;5103748;28;20040;-67
2023/01/28 06:17:32;;;;;;;5.18;2.67;;;;;;;1.87;100.00;101077.03;5074159;28;20143;-67
2023/01/28 06:20:07;;;;;;;3.85;3.10;;;;;;;1.84;100.00;101082.50;5088160;28;20479;-66
2023/01/28 06:22:35;;;;;;;2.90;1.90;;;;;;;1.86;100.00;101091.13;5103682;28;20036;-64
2023/01/28 06:25:00;;;;;;;2.45;2.00;;;;;;;1.85;100.00;101097.31;5087850;28;20032;-64
2023/01/28 06:27:26;;;;;;;4.18;2.15;;;;;;;1.78;100.00;101101.28;5103422;28;20496;-68
2023/01/28 06:29:52;;;;;;;3.25;1.58;;;;;;;1.80;100.00;101088.88;5087917;28;20478;-67
2023/01/28 06:32:17;;;;;;;1.08;1.08;;;;;;;1.77;100.00;101102.22;5083439;28;20040;-68
2023/01/28 06:34:43;;;;;;;4.88;2.53;;;;;;;1.82;100.00;101102.75;5072870;28;20057;-68
2023/01/28 06:37:12;;;;;;;3.85;2.10;;;;;;;1.85;100.00;101105.19;5073975;28;20100;-68
2023/01/28 06:39:37;;;;;;;2.63;2.08;;;;;;;1.88;100.00;101112.88;5074161;28;20063;-69
2023/01/28 06:42:02;;;;;;;1.45;1.35;;;;;;;1.77;100.00;101109.25;5074005;28;20549;-68
2023/01/28 06:44:28;;;;;;;2.80;2.08;;;;;;;1.83;100.00;101114.13;5089703;28;20036;-68
2023/01/28 06:46:53;;;;;;;2.72;1.83;;;;;;;1.83;100.00;101114.97;5073760;28;20076;-68
2023/01/28 06:49:20;;;;;;;2.22;1.75;;;;;;;1.77;100.00;101117.13;5073780;28;20036;-70
2023/01/28 06:51:45;;;;;;;1.67;1.52;;;;;;;1.78;100.00;101114.41;5073841;28;20044;-69
2023/01/28 06:54:10;;;;;;;4.43;2.55;;;;;;;1.83;100.00;101116.75;5073872;28;20048;-69
2023/01/28 06:56:36;;;;;;;3.30;1.90;;;;;;;1.81;100.00;101122.09;5073615;28;20093;-68
2023/01/28 06:59:01;;;;;;;3.67;2.78;;;;;;;1.82;100.00;101125.56;5073427;28;20409;-67
2023/01/28 07:01:27;;;;;;;2.75;1.95;;;;;;;1.86;100.00;101125.28;5073777;28;20037;-67
2023/01/28 07:03:52;;;;;;;2.92;2.17;;;;;;;1.87;100.00;101128.75;5073655;28;20040;-66
2023/01/28 07:06:18;;;;;;;2.60;1.70;;;;;;;1.85;100.00;101133.25;5073492;28;20040;-67
2023/01/28 07:08:43;;;;;;;3.22;2.10;;;;;;;1.82;100.00;101134.28;5073199;28;20126;-70
2023/01/28 07:11:08;;;;;;;3.33;2.10;;;;;;;1.89;100.00;101134.72;5073443;28;20070;-68
2023/01/28 07:13:34;;;;;;;2.00;1.77;;;;;;;1.80;100.00;101135.31;5073450;28;20455;-68
2023/01/28 07:15:59;;;;;;;3.80;2.30;;;;;;;1.84;100.00;101139.47;5068678;28;20461;-69
2023/01/28 07:18:25;;;;;;;2.67;2.10;;;;;;;1.85;100.00;101141.97;5053175;28;20506;-68
2023/01/28 07:20:50;;;;;;;3.58;2.08;;;;;;;1.89;100.00;101140.00;5053326;28;20037;-68
2023/01/28 07:23:16;;;;;;;1.90;1.67;;;;;;;1.89;100.00;101143.50;5052775;28;20086;-69
2023/01/28 07:25:41;;;;;;;2.58;2.10;;;;;;;1.94;100.00;101139.72;5053514;28;20048;-68
2023/01/28 07:28:07;;;;;;;2.72;2.33;;;;;;;1.90;100.00;101139.91;5053208;28;20132;-68
2023/01/28 07:30:32;;;;;;;4.65;2.40;;;;;;;1.92;100.00;101146.84;5053280;28;20064;-67
2023/01/28 07:32:58;;;;;;;3.55;2.67;;;;;;;1.94;100.00;101148.44;5068671;28;20456;-67
2023/01/28 07:35:25;;;;;;;4.35;2.50;;;;;;;1.89;100.00;101148.75;5051960;28;20063;-68
2023/01/28 07:37:55;;;;;;;3.17;2.00;;;;;;;1.95;100.00;101154.53;5052788;28;20029;-65
2023/01/28 07:40:21;;;;;;;2.15;1.77;;;;;;;1.92;100.00;101152.97;5053595;28;20481;-66
2023/01/28 07:42:47;;;;;;;2.20;1.60;;;;;;;1.85;100.00;101157.75;5053520;28;20367;-68
2023/01/28 07:45:13;;;;;;;3.17;1.85;;;;;;;1.90;100.00;101160.94;5067765;28;20086;-68
2023/01/28 07:47:38;;;;;;;2.05;1.58;;;;;;;1.93;100.00;101153.78;5053001;28;20438;-68
2023/01/28 07:50:04;;;;;;;3.55;2.05;;;;;;;1.98;100.00;101159.63;5053236;28;20033;-59
2023/01/28 07:52:30;;;;;;;2.13;1.70;;;;;;;2.00;100.00;101163.81;5052708;28;20481;-54
2023/01/28 07:54:55;;;;;;;2.53;1.90;;;;;;;1.94;100.00;101171.25;5052738;28;20048;-57
2023/01/28 07:57:23;;;;;;;2.63;1.60;;;;;;;1.94;100.00;101168.63;5052830;28;20041;-58
2023/01/28 07:59:52;;;;;;;2.20;1.80;;;;;;;1.97;100.00;101171.06;5052777;28;20041;-69
2023/01/28 08:02:17;;;;;;;3.13;1.90;;;;;;;2.00;100.00;101173.50;5053003;28;20394;-68
2023/01/28 08:04:43;;;;;;;2.08;1.50;;;;;;;2.00;100.00;101179.59;5052693;28;20040;-68
2023/01/28 08:07:08;;;;;;;2.78;1.70;;;;;;;2.04;100.00;101169.75;5052426;28;20049;-69
2023/01/28 08:09:34;;;;;;;3.08;1.75;;;;;;;2.01;100.00;101177.81;5052521;28;20565;-69
2023/01/28 08:12:03;;;;;;;4.63;2.45;;;;;;;1.96;100.00;101175.50;5065052;28;20393;-70
2023/01/28 08:14:28;;;;;;;3.38;2.53;;;;;;;1.95;100.00;101179.03;5088354;28;20059;-70
2023/01/28 08:16:53;;;;;;;3.25;2.00;;;;;;;2.00;100.00;101184.84;5072304;28;20044;-69
2023/01/28 08:19:20;;;;;;;4.25;2.17;;;;;;;1.99;100.00;101190.22;5072297;28;20089;-69
2023/01/28 08:21:49;;;;;;;3.17;2.15;;;;;;;2.04;100.00;101188.16;5072682;28;20041;-67
2023/01/28 08:24:15;;;;;;;2.80;2.50;;;;;;;2.04;100.00;101190.78;5072347;28;20047;-67
2023/01/28 08:26:40;;;;;;;5.18;2.45;;;;;;;1.99;100.00;101193.69;5070917;28;20044;-67
2023/01/28 08:29:06;;;;;;;4.35;2.40;;;;;;;1.98;100.00;101192.00;5071923;28;20032;-68
2023/01/28 08:31:31;;;;;;;3.45;2.08;;;;;;;2.06;100.00;101194.13;5072195;28;20607;-68
2023/01/28 08:33:57;;;;;;;2.67;1.95;;;;;;;1.98;100.00;101193.78;5087766;28;20041;-68
2023/01/28 08:36:22;;;;;;;4.03;2.17;;;;;;;1.99;100.00;101198.09;5072007;28;20036;-67
2023/01/28 08:38:53;;;;;;;2.15;1.85;;;;;;;1.99;100.00;101195.47;5071736;28;20239;-69
2023/01/28 08:41:20;;;;;;;5.57;2.60;;;;;;;2.04;100.00;101190.78;5087736;28;20090;-64
2023/01/28 08:43:46;;;;;;;4.22;2.08;;;;;;;1.92;100.00;101199.41;5072043;28;20072;-67
2023/01/28 08:46:12;;;;;;;3.35;2.05;;;;;;;2.04;100.00;101190.78;5072071;28;20060;-65
2023/01/28 08:48:37;;;;;;;3.08;1.98;;;;;;;2.07;100.00;101199.28;5071716;28;20101;-66
2023/01/28 08:51:03;;;;;;;1.80;1.70;;;;;;;2.13;100.00;101195.44;5071925;28;20036;-67
2023/01/28 08:53:28;;;;;;;4.57;2.30;;;;;;;2.15;100.00;101197.06;5071810;28;20455;-70
2023/01/28 08:55:54;;;;;;;3.28;2.58;;;;;;;2.13;100.00;101198.06;5071844;28;20544;-65
2023/01/28 08:58:20;;;;;;;2.85;2.30;;;;;;;2.20;100.00;101199.38;5071536;28;20090;-65
2023/01/28 09:00:46;;;;;;;2.47;2.28;;;;;;;2.21;100.00;101194.97;5071637;28;20032;-64
2023/01/28 09:03:12;;;;;;;3.65;2.30;;;;;;;2.15;100.00;101199.69;5071793;28;20033;-67
2023/01/28 09:05:37;;;;;;;3.53;2.42;;;;;;;2.26;100.00;101203.41;5071729;28;20042;-65
2023/01/28 09:08:06;;;;;;;3.40;2.10;;;;;;;2.25;100.00;101201.72;5071672;28;20037;-68
2023/01/28 09:10:31;;;;;;;2.80;1.95;;;;;;;2.18;100.00;101194.22;5071704;28;20417;-68
2023/01/28 09:12:57;;;;;;;3.45;2.20;;;;;;;2.18;100.00;101199.47;5071778;28;20052;-68
2023/01/28 09:15:22;;;;;;;5.38;2.15;;;;;;;2.08;100.00;101194.88;5071685;28;20036;-67
2023/01/28 09:17:48;;;;;;;3.58;2.17;;;;;;;2.13;100.00;101208.59;5070209;28;20040;-66
2023/01/28 09:20:13;;;;;;;3.70;2.13;;;;;;;2.18;100.00;101210.00;5071667;28;20033;-68
2023/01/28 09:22:39;;;;;;;4.38;2.47;;;;;;;2.23;100.00;101209.72;5071439;28;20392;-67
2023/01/28 09:25:04;;;;;;;3.65;2.28;;;;;;;2.30;100.00;101213.66;5071702;28;20878;-65
2023/01/28 09:27:30;;;;;;;3.05;2.05;;;;;;;2.30;100.00;101213.66;5071241;28;20067;-66
2023/01/28 09:29:56;;;;;;;6.80;2.80;;;;;;;2.34;100.00;101222.16;5071481;28;20485;-64
2023/01/28 09:32:23;;;;;;;5.15;2.50;;;;;;;2.32;100.00;101218.78;5071409;28;20074;-64
2023/01/28 09:34:49;;;;;;;4.35;2.17;;;;;;;2.26;100.00;101211.28;5071291;28;20040;-68
2023/01/28 09:37:14;;;;;;;3.42;2.33;;;;;;;2.35;100.00;101224.72;5071193;28;20113;-65
2023/01/28 09:39:40;;;;;;;3.67;2.67;;;;;;;2.34;100.00;101228.25;5071491;28;20086;-64
2023/01/28 09:42:37;;;;;;;4.20;2.42;;;;;;;2.41;100.00;101226.97;5087189;28;20493;-64
2023/01/28 09:45:21;;;;;;;3.78;2.42;;;;;;;2.44;100.00;101229.38;5071347;28;20043;-65
2023/01/28 09:47:59;;;;;;;2.05;1.85;;;;;;;2.44;100.00;101236.44;5071098;28;20119;-62
2023/01/28 09:50:27;;;;;;;;;;;;;;;2.45;100.00;101236.31;5071784;28;20040;-64
2023/01/28 09:52:56;;;;;;;4.22;2.22;;;;;;;2.40;100.00;101233.13;5071471;28;19916;-62
2023/01/28 09:55:28;;;;;;;5.70;2.22;;;;;;;2.54;100.00;101232.25;5071187;28;20055;-63
2023/01/28 09:57:55;;;;;;;5.32;2.80;;;;;;;2.50;100.00;101240.47;5070960;28;20037;-63
2023/01/28 10:00:32;;;;;;;4.50;2.30;;;;;;;2.60;100.00;101241.56;5070981;28;20029;-63
2023/01/28 10:03:23;;;;;;;6.03;2.97;;;;;;;2.65;100.00;101244.75;5071570;28;20478;-61
2023/01/28 10:06:17;;;;;;;4.65;2.85;;;;;;;2.72;100.00;101240.78;5072423;28;20119;-62
2023/01/28 10:08:51;;;;;;;5.05;2.80;;;;;;;2.79;100.00;101242.06;5073544;28;20036;-63
2023/01/28 10:11:33;;;;;;;4.22;2.65;;;;;;;2.85;100.00;101236.41;5074931;28;20051;-64
2023/01/28 10:14:07;;;;;;;4.72;2.63;;;;;;;2.78;100.00;101237.75;5090604;28;20054;-64
2023/01/28 10:16:47;;;;;;;3.55;2.22;;;;;;;2.89;100.00;101242.31;5074658;28;20028;-62
2023/01/28 10:19:23;;;;;;;5.10;2.35;;;;;;;2.86;100.00;101240.72;5074458;28;20170;-62
2023/01/28 10:22:01;;;;;;;3.65;2.40;;;;;;;2.84;100.00;101229.47;5075131;28;20047;-64
2023/01/28 10:24:44;;;;;;;5.78;2.88;;;;;;;2.76;100.00;101229.13;5074719;28;20489;-69
2023/01/28 10:27:16;;;;;;;3.38;2.13;;;;;;;2.76;100.00;101228.28;5074341;28;20024;-61
2023/01/28 10:29:44;;;;;;;3.92;2.00;;;;;;;2.75;100.00;101227.44;5074495;28;20043;-63
2023/01/28 10:32:28;;;;;;;3.47;2.60;;;;;;;2.80;100.00;101227.13;5074439;28;20430;-63
2023/01/28 10:34:55;;;;;;;12.85;2.92;;;;;;;2.81;100.00;101232.31;5074247;28;20064;-62
2023/01/28 10:37:21;;;;;;;3.53;2.60;;;;;;;2.79;100.00;101223.63;5074443;28;20076;-63
2023/01/28 10:39:47;;;;;;;3.83;2.10;;;;;;;2.83;100.00;101229.56;5074457;28;20071;-62
2023/01/28 10:42:37;;;;;;;4.75;2.72;;;;;;;2.80;100.00;101229.75;5074308;28;20029;-63
2023/01/28 10:45:05;;;;;;;3.17;2.00;;;;;;;2.84;100.00;101226.81;5074454;28;20123;-63
2023/01/28 10:48:26;;;;;;;4.85;2.55;;;;;;;2.88;100.00;101232.75;5073900;28;20071;-63
2023/01/28 10:51:00;;;;;;;4.45;3.22;;;;;;;2.68;100.00;101229.63;5011972;28;20458;-63
2023/01/28 10:53:52;;;;;;;4.75;2.13;;;;;;;2.73;100.00;101234.56;5064714;28;20057;-64
2023/01/28 10:56:24;;;;;;;3.95;2.70;;;;;;;2.77;100.00;101236.06;5071035;28;20057;-62
2023/01/28 10:59:02;;;;;;;4.88;2.25;;;;;;;2.83;100.00;101240.94;5073732;28;20044;-65
2023/01/28 11:01:44;;;;;;;2.45;1.75;;;;;;;2.71;100.00;101236.47;5073953;28;20371;-63
2023/01/28 11:04:25;;;;;;;4.20;3.50;;;;;;;2.78;100.00;101245.63;5073893;28;20119;-63
2023/01/28 11:07:21;;;;;;;4.35;1.92;;;;;;;2.67;100.00;101241.09;5073768;28;20136;-62
2023/01/28 11:09:49;;;;;;;11.23;3.00;;;;;;;2.75;100.00;101240.59;5069912;28;20037;-63
2023/01/28 11:12:22;;;;;;;;;;;;;;;2.80;100.00;101246.38;5074209;28;20024;-62
2023/01/28 11:15:02;;;;;;;5.30;2.28;;;;;;;2.79;100.00;101244.69;5089135;28;19924;-62
2023/01/28 11:17:38;;;;;;;3.85;2.10;;;;;;;2.71;100.00;101236.47;5072309;28;20047;-63
2023/01/28 11:20:18;;;;;;;4.47;2.60;;;;;;;2.80;100.00;101250.78;5073522;28;20396;-62
2023/01/28 11:22:44;;;;;;;4.95;3.45;;;;;;;2.75;100.00;101240.59;5073528;28;20040;-62
2023/01/28 11:25:24;;;;;;;4.35;2.65;;;;;;;2.68;100.00;101242.78;5073445;28;20043;-62
2023/01/28 11:27:51;;;;;;;6.13;2.97;;;;;;;2.76;100.00;101244.06;5073227;28;20033;-62
2023/01/28 11:30:27;;;;;;;4.35;2.92;;;;;;;2.80;100.00;101240.28;5073487;28;20124;-63
2023/01/28 11:33:13;;;;;;;4.00;2.70;;;;;;;2.79;100.00;101247.31;5073484;28;20044;-61
2023/01/28 11:35:38;;;;;;;4.53;2.25;;;;;;;2.76;100.00;101250.16;5073675;28;20060;-66
2023/01/28 11:38:18;;;;;;;4.53;2.45;;;;;;;2.84;100.00;101239.16;5073102;28;20489;-66
2023/01/28 11:40:54;;;;;;;5.78;2.53;;;;;;;2.87;100.00;101242.44;5088893;28;20043;-65
2023/01/28 11:43:22;;;;;;;6.38;2.45;;;;;;;2.90;100.00;101250.13;5073171;28;20127;-66
2023/01/28 11:46:09;;;;;;;3.65;2.10;;;;;;;2.96;100.00;101247.09;5072977;28;20040;-66
2023/01/28 11:48:45;;;;;;;3.15;2.22;;;;;;;3.00;100.00;101245.13;5072797;28;20116;-66
2023/01/28 11:51:33;;;;;;;4.32;2.92;;;;;;;2.82;98.95;101244.50;5072923;28;20496;-66
2023/01/28 11:54:13;;;;;;;2.60;1.60;;;;;;;2.96;99.51;101244.44;5072967;28;20119;-66
2023/01/28 11:57:05;;;;;;;3.80;2.22;;;;;;;2.82;100.00;101241.88;5072930;28;20496;-66
2023/01/28 11:59:53;;;;;;;3.33;2.10;;;;;;;2.99;99.14;101246.88;5044210;28;20485;-67
2023/01/28 12:02:30;;;;;;;3.83;2.45;;;;;;;3.05;98.51;101250.06;5072797;28;20042;-65
2023/01/28 12:05:28;;;;;;;3.42;2.75;;;;;;;3.08;97.02;101248.09;5072810;28;20040;-64
2023/01/28 12:07:59;;;;;;;5.07;2.30;;;;;;;3.02;97.47;101243.22;5072598;28;20032;-66
2023/01/28 12:10:51;;;;;;;4.93;2.13;;;;;;;2.96;96.92;101238.34;5072589;28;20568;-66
2023/01/28 12:13:43;;;;;;;4.45;2.03;;;;;;;2.98;95.31;101237.28;5065608;28;20424;-66
2023/01/28 12:16:47;;;;;;;4.05;2.15;;;;;;;2.98;95.48;101242.56;5071888;28;20566;-64
2023/01/28 12:19:34;;;;;;;3.47;2.25;;;;;;;2.93;95.89;101244.66;5062490;28;20402;-64
2023/01/28 12:22:21;;;;;;;2.88;2.35;;;;;;;2.97;96.10;101232.97;5072335;28;20488;-63
2023/01/28 12:24:57;;;;;;;3.53;2.15;;;;;;;2.96;96.04;101231.28;5072255;28;20040;-65
2023/01/28 12:27:46;;;;;;;3.95;2.35;;;;;;;2.98;96.14;101231.19;5071921;28;20109;-63
2023/01/28 12:30:49;;;;;;;2.83;1.83;;;;;;;3.02;96.00;101227.41;5071712;28;20404;-63
2023/01/28 12:33:24;;;;;;;6.32;2.42;;;;;;;3.09;95.44;101225.22;5072164;28;20102;-63
2023/01/28 12:36:15;;;;;;;3.40;1.77;;;;;;;3.06;95.10;101220.16;5087634;28;20047;-64
2023/01/28 12:39:01;;;;;;;5.55;2.55;;;;;;;3.15;94.70;101219.56;5072010;28;20036;-63
2023/01/28 12:41:34;;;;;;;2.83;2.28;;;;;;;3.16;95.08;101215.97;5072197;28;20028;-64
2023/01/28 12:44:02;;;;;;;4.22;2.00;;;;;;;3.13;94.16;101216.16;5072056;28;20032;-64
2023/01/28 12:46:50;;;;;;;4.53;2.30;;;;;;;3.19;93.79;101213.97;5071912;28;20064;-65
2023/01/28 12:49:26;;;;;;;3.33;1.95;;;;;;;3.19;92.21;101221.84;5071718;28;20036;-64
2023/01/28 12:52:07;;;;;;;3.17;2.13;;;;;;;3.25;93.33;101218.81;5071988;28;20094;-66
2023/01/28 12:55:01;;;;;;;3.60;1.88;;;;;;;3.29;92.24;101213.38;5071759;28;20090;-65
2023/01/28 12:57:34;;;;;;;2.22;1.90;;;;;;;3.36;90.94;101212.00;5064629;28;20410;-65
2023/01/28 13:00:24;;;;;;;2.25;1.98;;;;;;;3.42;89.80;101215.06;5071846;28;20043;-65
2023/01/28 13:03:22;;;;;;;3.08;1.98;;;;;;;3.43;89.25;101211.47;5071691;28;20067;-65
2023/01/28 13:05:51;;;;;;;2.90;1.73;;;;;;;3.33;87.82;101206.97;5059663;28;20055;-66
2023/01/28 13:08:22;;;;;;;3.28;2.17;;;;;;;3.37;87.77;101208.41;5087143;28;20103;-66
2023/01/28 13:10:48;;;;;;;4.35;1.80;;;;;;;3.30;88.67;101197.44;5071743;28;20416;-64
2023/01/28 13:13:18;;;;;;;4.13;1.77;;;;;;;3.36;88.43;101207.56;5071631;28;20170;-64
2023/01/28 13:15:45;;;;;;;4.03;2.45;;;;;;;3.33;87.80;101207.78;5071685;28;20127;-64
2023/01/28 13:18:33;;;;;;;2.70;1.75;;;;;;;3.27;88.18;101208.22;5071479;28;20039;-64
2023/01/28 13:21:00;;;;;;;2.53;1.40;;;;;;;3.34;88.77;101209.47;5071758;28;20047;-63
2023/01/28 13:23:59;;;;;;;2.95;2.00;;;;;;;3.41;88.02;101217.81;5071868;28;20492;-65
2023/01/28 13:26:39;;;;;;;2.00;1.48;;;;;;;3.37;87.05;101218.94;5060540;28;20117;-65
2023/01/28 13:29:14;;;;;;;3.40;1.92;;;;;;;3.35;86.72;101218.22;5071217;28;20067;-62
2023/01/28 13:31:42;;;;;;;1.85;1.60;;;;;;;3.41;86.92;101215.19;5071601;28;20033;-62
2023/01/28 13:34:26;;;;;;;3.17;1.90;;;;;;;3.41;86.46;101217.81;5071495;28;20040;-64
2023/01/28 13:36:52;;;;;;;5.78;2.22;;;;;;;3.30;85.51;101220.31;5070065;28;20107;-65
2023/01/28 13:39:23;;;;;;;2.60;1.83;;;;;;;3.35;86.15;101221.69;5071236;28;20089;-64
2023/01/28 13:41:51;;;;;;;3.25;2.00;;;;;;;3.34;85.37;101220.03;5070199;28;20071;-64
2023/01/28 13:44:16;;;;;;;1.90;1.35;;;;;;;3.26;85.74;101228.44;5075104;28;20097;-62
2023/01/28 13:46:42;;;;;;;3.67;2.05;;;;;;;3.28;86.59;101225.69;5075268;28;20127;-64
2023/01/28 13:49:14;;;;;;;7.43;1.95;;;;;;;3.31;86.86;101230.75;5075041;28;20130;-65
2023/01/28 13:51:51;;;;;;;5.22;2.20;;;;;;;3.28;87.24;101230.13;5075272;28;20478;-64
2023/01/28 13:54:20;;;;;;;2.63;1.70;;;;;;;3.25;85.51;101236.41;5075293;28;20040;-63
2023/01/28 13:56:58;;;;;;;3.35;1.70;;;;;;;3.27;86.72;101245.06;5075021;28;20335;-63
2023/01/28 13:59:46;;;;;;;2.88;1.90;;;;;;;3.23;87.09;101240.94;5074965;28;20043;-64
2023/01/28 14:02:33;;;;;;;2.22;1.60;;;;;;;3.23;85.14;101252.31;5075415;28;20033;-66
2023/01/28 14:05:15;;;;;;;2.80;1.55;;;;;;;3.23;86.02;101249.69;5075109;28;20082;-64
2023/01/28 14:08:14;;;;;;;4.22;1.85;;;;;;;3.23;85.67;101249.69;5074781;28;20064;-62
2023/01/28 14:10:57;;;;;;;2.50;1.70;;;;;;;3.21;86.39;101250.75;5074870;28;20051;-65
2023/01/28 14:13:53;;;;;;;2.58;2.13;;;;;;;3.19;85.80;101252.63;5069444;28;20045;-63
2023/01/28 14:17:02;;;;;;;2.95;2.05;;;;;;;3.18;85.81;101264.09;5054737;28;20037;-62
2023/01/28 14:19:32;;;;;;;1.80;1.35;;;;;;;3.21;86.02;101262.13;5046060;28;20500;-65
2023/01/28 14:21:58;;;;;;;3.80;1.98;;;;;;;3.26;83.74;101265.31;5054334;28;20044;-65
2023/01/28 14:24:24;;;;;;;4.07;2.17;;;;;;;3.24;83.72;101267.16;5054570;28;20048;-65
2023/01/28 14:27:00;;;;;;;2.10;1.52;;;;;;;3.23;83.53;101276.03;5054516;28;20041;-64
2023/01/28 14:29:41;;;;;;;2.63;1.67;;;;;;;3.27;83.73;101281.94;5054358;28;20049;-65
2023/01/28 14:32:14;;;;;;;2.15;1.90;;;;;;;3.29;83.83;101282.69;5054285;28;20025;-65
2023/01/28 14:34:41;;;;;;;1.63;1.42;;;;;;;3.25;83.98;101287.28;5054735;28;20041;-63
2023/01/28 14:37:11;;;;;;;2.65;1.77;;;;;;;3.28;83.75;101283.63;5054022;28;20552;-66
2023/01/28 14:39:51;;;;;;;3.97;2.10;;;;;;;3.28;82.59;101293.31;5054278;28;20040;-63
2023/01/28 14:42:24;;;;;;;2.35;1.67;;;;;;;3.21;81.36;101298.16;5054345;28;20029;-65
2023/01/28 14:45:08;;;;;;;2.35;1.52;;;;;;;3.20;81.93;101296.47;5054205;28;20131;-64
2023/01/28 14:48:01;;;;;;;2.33;1.55;;;;;;;3.13;82.77;101295.16;5053926;28;20116;-62
2023/01/28 14:50:51;;;;;;;4.47;1.85;;;;;;;3.17;83.03;101302.75;5054127;28;20135;-64
2023/01/28 14:53:35;;;;;;;3.53;2.25;;;;;;;3.18;83.53;101303.59;5053586;28;20037;-63
2023/01/28 14:56:19;;;;;;;5.25;2.60;;;;;;;3.23;82.88;101306.78;5054187;28;20098;-65
2023/01/28 14:58:52;;;;;;;1.83;1.10;;;;;;;3.23;82.88;101302.34;5053839;28;20094;-65
2023/01/28 15:01:27;;;;;;;2.47;1.70;;;;;;;3.24;81.98;101297.94;5054037;28;20107;-65
2023/01/28 15:03:52;;;;;;;1.80;1.30;;;;;;;3.21;81.57;101312.16;5054024;28;20136;-63
2023/01/28 15:06:23;;;;;;;3.03;1.63;;;;;;;3.16;82.16;101301.06;5069326;28;20064;-63
2023/01/28 15:08:52;;;;;;;2.72;1.45;;;;;;;3.16;82.04;101302.88;5053638;28;20045;-63
2023/01/28 15:11:24;;;;;;;2.40;1.30;;;;;;;3.16;81.86;101310.75;5053699;28;20116;-63
2023/01/28 15:13:57;;;;;;;3.15;1.50;;;;;;;3.10;82.08;101314.63;5053979;28;20407;-63
2023/01/28 15:16:30;;;;;;;1.90;1.65;;;;;;;3.11;82.48;101310.22;5053451;28;20045;-64
2023/01/28 15:18:59;;;;;;;2.20;1.23;;;;;;;3.05;82.78;101313.22;5053365;28;20037;-65
2023/01/28 15:21:28;;;;;;;5.80;2.72;;;;;;;3.07;84.03;101306.09;5053591;28;20521;-65
2023/01/28 15:23:59;;;;;;;2.15;1.42;;;;;;;3.04;83.43;101316.81;5053457;28;20128;-63
2023/01/28 15:26:27;;;;;;;1.73;1.60;;;;;;;2.96;83.11;101326.06;5053277;28;20033;-64
2023/01/28 15:28:53;;;;;;;2.65;1.42;;;;;;;2.80;84.23;101319.22;5053079;28;20041;-63
2023/01/28 15:31:23;;;;;;;2.05;1.48;;;;;;;2.82;82.61;101320.00;5053280;28;20037;-64
2023/01/28 15:34:17;;;;;;;1.73;1.63;;;;;;;2.76;82.78;101331.75;5053273;28;20052;-63
2023/01/28 15:36:43;;;;;;;2.97;1.55;;;;;;;2.73;84.58;101339.81;5053113;28;20082;-64
2023/01/28 15:39:21;;;;;;;3.03;1.60;;;;;;;2.73;83.67;101339.81;5054402;28;20487;-65
2023/01/28 15:41:51;;;;;;;2.30;1.52;;;;;;;2.76;84.06;101339.63;5053950;28;20037;-65
2023/01/28 15:44:31;;;;;;;2.08;1.75;;;;;;;2.65;83.66;101342.94;5053179;28;20068;-64
2023/01/28 15:47:02;;;;;;;2.72;1.70;;;;;;;2.62;83.17;101350.19;5052870;28;20168;-64
2023/01/28 15:49:36;;;;;;;2.10;1.80;;;;;;;2.60;82.69;101341.53;5052726;28;20033;-65
2023/01/28 15:52:02;;;;;;;4.82;1.73;;;;;;;2.51;84.03;101348.19;5052957;28;20517;-62
2023/01/28 15:54:29;;;;;;;1.83;1.23;;;;;;;2.53;83.83;101351.56;5068300;28;20033;-63
2023/01/28 15:56:55;;;;;;;2.75;1.80;;;;;;;2.56;83.26;101342.66;5052502;28;20509;-65
2023/01/28 15:59:26;;;;;;;1.27;0.98;;;;;;;2.51;82.09;101348.19;5052596;28;20127;-65
2023/01/28 16:02:18;;;;;;;2.42;1.42;;;;;;;2.51;83.45;101350.00;5052911;28;20033;-65
2023/01/28 16:04:55;;;;;;;1.50;1.30;;;;;;;2.47;83.25;101348.47;5052231;28;20033;-66
2023/01/28 16:07:20;;;;;;;3.10;1.77;;;;;;;2.51;82.80;101345.56;5052315;28;20037;-65
2023/01/28 16:09:51;;;;;;;1.65;1.50;;;;;;;2.57;81.65;101347.00;5068094;28;20040;-64
2023/01/28 16:12:17;;;;;;;2.03;1.75;;;;;;;2.51;82.27;101344.72;5052460;28;20029;-65
2023/01/28 16:14:47;;;;;;;1.85;1.35;;;;;;;2.55;81.17;101347.09;5052516;28;20124;-64
2023/01/28 16:17:18;;;;;;;3.00;1.55;;;;;;;2.56;81.43;101337.41;5052137;28;20037;-65
2023/01/28 16:19:48;;;;;;;1.58;1.27;;;;;;;2.49;82.07;101339.56;5052722;28;20558;-62
2023/01/28 16:22:35;;;;;;;1.65;1.20;;;;;;;2.48;82.90;101340.53;5052566;28;20056;-65
2023/01/28 16:25:01;;;;;;;2.28;1.30;;;;;;;2.39;82.35;101339.28;5052207;28;20029;-61
2023/01/28 16:27:30;;;;;;;1.67;1.20;;;;;;;2.45;82.46;101344.16;5052179;28;20029;-61
2023/01/28 16:29:56;;;;;;;2.75;1.73;;;;;;;2.44;82.43;101352.16;5052317;28;20036;-62
2023/01/28 16:32:33;;;;;;;1.55;1.45;;;;;;;2.43;82.80;101345.22;5052262;28;20560;-63
2023/01/28 16:35:00;;;;;;;1.95;1.40;;;;;;;2.32;82.07;101345.00;5052110;28;20063;-62
2023/01/28 16:37:25;;;;;;;2.80;1.45;;;;;;;2.30;83.42;101345.13;5067320;28;20041;-64
2023/01/28 16:39:51;;;;;;;2.13;1.67;;;;;;;2.40;82.49;101340.97;5052277;28;20509;-67
2023/01/28 16:42:17;;;;;;;2.58;1.98;;;;;;;2.34;83.17;101337.88;5052437;28;20398;-64
2023/01/28 16:44:43;;;;;;;2.00;1.58;;;;;;;2.39;83.02;101341.91;5067486;28;20504;-63
2023/01/28 16:47:08;;;;;;;1.92;1.45;;;;;;;2.36;82.84;101342.13;5051754;28;20040;-64
2023/01/28 16:49:34;;;;;;;1.80;1.30;;;;;;;2.32;82.82;101332.72;5067381;28;20037;-68
2023/01/28 16:52:00;;;;;;;2.08;1.40;;;;;;;2.31;83.51;101340.69;5051965;28;20131;-66
2023/01/28 16:54:26;;;;;;;2.10;1.23;;;;;;;2.28;82.66;101339.13;5051997;28;20060;-65
2023/01/28 16:56:53;;;;;;;2.75;1.60;;;;;;;2.30;83.10;101339.84;5051788;28;20044;-66
2023/01/28 16:59:18;;;;;;;3.03;1.38;;;;;;;2.31;82.81;101344.16;5051701;28;20041;-68
2023/01/28 17:01:46;;;;;;;1.67;1.50;;;;;;;2.27;83.28;101342.66;5051802;28;20043;-65
2023/01/28 17:04:12;;;;;;;3.00;1.83;;;;;;;2.14;83.72;101352.22;5051802;28;20049;-65
2023/01/28 17:06:40;;;;;;;2.17;1.60;;;;;;;2.15;84.38;101346.91;5051607;28;20048;-65
2023/01/28 17:09:06;;;;;;;1.48;1.25;;;;;;;2.25;84.00;101364.72;5051582;28;20112;-69
2023/01/28 17:11:32;;;;;;;1.95;1.70;;;;;;;2.24;83.88;101365.69;5051639;28;20124;-68
2023/01/28 17:13:59;;;;;;;1.63;1.23;;;;;;;2.23;83.19;101372.72;5051678;28;20476;-68
2023/01/28 17:16:24;;;;;;;1.95;1.42;;;;;;;2.17;82.78;101373.09;5066816;28;20033;-67